Main page
METAR-TAF:

METAR-TAF

Airports :

Chièvres, Belgium

Chièvres Air Base

latitude: 50-34N, longitude: 003-50E, elevation: 60 m

Current weather observation

The report was made 30 minutes ago, at 01:55 UTC
Wind 4 kt from the Southwest
Temperature -1°C
Humidity 100%
Pressure 1022 hPa
Visibility: 6000 m

METAR: EBCV 170155Z AUTO 23004KT 6000 NCD M01/M01 Q1022 WHT

Time: 03:25 (02:25 UTC)

Forecast

The report was made 10 hours and 44 minutes ago, at 15:41 UTC
Forecast valid from 16 at 19 UTC to 17 at 07 UTC
Wind 5 kt from the West
Visibility 10 km or more
Few clouds at a height of 1000 ft
Scattered clouds at a height of 2500 ft
Becoming
from 17 at 00 UTC to 17 at 02 UTC
Visibility: 7000 m
Broken clouds at a height of 2200 ft
Becoming
from 17 at 05 UTC to 17 at 07 UTC
Visibility: 4000 m
Scattered clouds at a height of 800 ft
Broken clouds at a height of 1500 ft
mist

TAF: EBCV 161541Z 1619/1707 26005KT 9999 FEW010 SCT025 BECMG 1700/1702 7000 BKN022 BECMG 1705/1707 4000 BR SCT008 BKN015 BY EBWM

Weather observations and forecasts of more than 4000 airports (METAR and TAF reports).

The available stations are represented by yellow and red dots on the map.

Hover mouse over dot to see the name of the station.

Then click to see weather observations and forecasts.

To change the map : click on the green buttons with a black cross to zoom in, on the green button with a dash to zoom out, or on the green arrows for adjacent maps.


METAR-TAF: